createdAt,value
2018-04-17T00:00:45.076Z,12.80
2018-04-17T00:03:13.869Z,12.90
2018-04-17T00:05:42.256Z,12.90
2018-04-17T00:08:10.636Z,12.90
2018-04-17T00:10:39.044Z,12.90
2018-04-17T00:13:08.212Z,12.80
2018-04-17T00:15:36.679Z,12.80
2018-04-17T00:18:05.101Z,12.80
2018-04-17T00:20:34.457Z,12.90
2018-04-17T00:23:02.871Z,12.90
2018-04-17T00:25:32.751Z,12.80
2018-04-17T00:28:01.153Z,12.80
2018-04-17T00:30:29.533Z,12.70
2018-04-17T00:32:57.992Z,12.70
2018-04-17T00:35:26.364Z,12.80
2018-04-17T00:37:54.958Z,12.80
2018-04-17T00:40:23.344Z,12.70
2018-04-17T00:42:51.713Z,12.60
2018-04-17T00:45:20.121Z,12.60
2018-04-17T00:47:48.495Z,12.60
2018-04-17T00:50:16.896Z,12.60
2018-04-17T00:52:46.050Z,12.60
2018-04-17T00:55:14.436Z,12.60
2018-04-17T00:57:42.826Z,12.60
2018-04-17T01:00:11.204Z,12.60
2018-04-17T01:02:39.604Z,12.50
2018-04-17T01:05:08.748Z,12.50
2018-04-17T01:07:37.331Z,12.50
2018-04-17T01:10:05.720Z,12.60
2018-04-17T01:12:34.087Z,12.60
2018-04-17T01:15:02.489Z,12.60
2018-04-17T01:17:31.351Z,12.70
2018-04-17T01:20:01.828Z,12.70
2018-04-17T01:22:30.702Z,12.60
2018-04-17T01:24:59.859Z,12.70
2018-04-17T01:27:28.755Z,12.70
2018-04-17T01:29:57.725Z,12.70
2018-04-17T01:32:26.731Z,12.70
2018-04-17T01:34:56.371Z,12.70
2018-04-17T01:37:25.578Z,12.60
2018-04-17T01:39:55.259Z,12.50
2018-04-17T01:42:24.587Z,12.50
2018-04-17T01:44:52.969Z,12.60
2018-04-17T01:47:21.345Z,12.30
2018-04-17T01:49:49.731Z,12.30
2018-04-17T01:52:18.109Z,12.30
2018-04-17T01:54:48.013Z,12.30
2018-04-17T01:57:16.394Z,12.30
2018-04-17T01:59:45.144Z,12.30
2018-04-17T02:02:13.520Z,12.40
2018-04-17T02:04:41.897Z,12.30
2018-04-17T02:07:10.292Z,12.20
2018-04-17T02:09:38.656Z,12.20
2018-04-17T02:12:07.064Z,12.10
2018-04-17T02:14:35.437Z,12.00
2018-04-17T02:17:04.101Z,11.90
2018-04-17T02:19:32.481Z,11.90
2018-04-17T02:22:00.866Z,12.10
2018-04-17T02:24:29.261Z,12.00
2018-04-17T02:26:57.661Z,12.00
2018-04-17T02:29:26.057Z,12.10
2018-04-17T02:31:55.196Z,12.10
2018-04-17T02:34:23.613Z,12.10
2018-04-17T02:36:51.981Z,12.10
2018-04-17T02:39:20.361Z,12.10
2018-04-17T02:41:48.761Z,12.20
2018-04-17T02:44:17.921Z,12.00
2018-04-17T02:46:46.320Z,12.00
2018-04-17T02:49:14.718Z,12.10
2018-04-17T02:51:43.898Z,11.90
2018-04-17T02:54:12.281Z,12.00
2018-04-17T02:56:40.653Z,11.90
2018-04-17T02:59:09.046Z,12.00
2018-04-17T03:01:37.430Z,11.90
2018-04-17T03:04:06.586Z,11.90
2018-04-17T03:06:34.972Z,11.90
2018-04-17T03:09:03.529Z,11.90
2018-04-17T03:11:31.897Z,12.00
2018-04-17T03:14:00.272Z,11.90
2018-04-17T03:16:28.669Z,11.90
2018-04-17T03:18:57.040Z,11.90
2018-04-17T03:21:25.444Z,11.80
2018-04-17T03:23:53.822Z,11.80
2018-04-17T03:26:22.228Z,11.80
2018-04-17T03:28:51.372Z,11.70
2018-04-17T03:31:19.748Z,11.80
2018-04-17T03:33:48.143Z,11.70
2018-04-17T03:36:16.532Z,11.70
2018-04-17T03:38:44.967Z,11.70
2018-04-17T03:41:13.340Z,11.70
2018-04-17T03:43:41.769Z,11.70
2018-04-17T03:46:10.145Z,11.60
2018-04-17T03:48:38.523Z,11.60
2018-04-17T03:51:06.920Z,11.60
2018-04-17T03:53:35.290Z,11.60
2018-04-17T03:56:03.681Z,11.50
2018-04-17T03:58:32.053Z,11.50
2018-04-17T04:01:00.796Z,11.40
2018-04-17T04:03:29.162Z,11.50
2018-04-17T04:05:57.528Z,11.40
2018-04-17T04:08:25.942Z,11.30
2018-04-17T04:10:54.428Z,11.20
2018-04-17T04:13:22.825Z,11.20
2018-04-17T04:15:51.192Z,11.20
2018-04-17T04:18:37.445Z,11.20
2018-04-17T04:21:23.721Z,11.20
2018-04-17T04:24:10.042Z,11.10
2018-04-17T04:26:38.442Z,11.00
2018-04-17T04:29:06.844Z,11.00
2018-04-17T04:31:35.224Z,11.00
2018-04-17T04:34:03.622Z,11.10
2018-04-17T04:36:31.997Z,11.10
2018-04-17T04:39:00.408Z,11.10
2018-04-17T04:41:29.557Z,10.80
2018-04-17T04:43:58.006Z,10.70
2018-04-17T04:46:26.415Z,10.70
2018-04-17T04:48:54.788Z,10.80
2018-04-17T04:51:23.186Z,10.90
2018-04-17T04:53:51.572Z,10.90
2018-04-17T04:56:20.222Z,10.90
2018-04-17T04:58:48.592Z,11.00
2018-04-17T05:01:16.957Z,11.00
2018-04-17T05:03:45.370Z,11.10
2018-04-17T05:06:13.788Z,11.20
2018-04-17T05:08:42.173Z,11.20
2018-04-17T05:11:11.345Z,11.30
2018-04-17T05:13:39.773Z,11.30
2018-04-17T05:16:08.153Z,11.40
2018-04-17T05:18:36.532Z,11.50
2018-04-17T05:21:04.937Z,11.50
2018-04-17T05:23:33.330Z,11.60
2018-04-17T05:26:01.743Z,11.50
2018-04-17T05:28:30.900Z,11.70
2018-04-17T05:30:59.366Z,11.70
2018-04-17T05:33:27.793Z,11.80
2018-04-17T05:35:56.959Z,12.00
2018-04-17T05:38:25.366Z,12.00
2018-04-17T05:40:54.520Z,12.00
2018-04-17T05:43:22.923Z,12.00
2018-04-17T05:45:51.305Z,12.00
2018-04-17T05:48:19.957Z,12.00
2018-04-17T05:50:48.372Z,12.10
2018-04-17T05:53:16.748Z,12.30
2018-04-17T05:55:45.153Z,12.30
2018-04-17T05:58:13.536Z,12.30
2018-04-17T06:00:42.702Z,12.50
2018-04-17T06:03:11.072Z,12.50
2018-04-17T06:05:39.499Z,12.70
2018-04-17T06:08:07.884Z,12.80
2018-04-17T06:10:36.260Z,12.80
2018-04-17T06:13:04.665Z,13.00
2018-04-17T06:15:33.038Z,13.00
2018-04-17T06:18:01.437Z,13.20
2018-04-17T06:20:29.824Z,13.30
2018-04-17T06:22:58.376Z,13.40
2018-04-17T06:25:26.757Z,13.50
2018-04-17T06:27:55.141Z,13.70
2018-04-17T06:30:23.541Z,13.70
2018-04-17T06:32:51.917Z,13.80
2018-04-17T06:35:20.320Z,13.90
2018-04-17T06:37:49.468Z,14.10
2018-04-17T06:40:18.257Z,14.10
2018-04-17T06:42:46.641Z,14.10
2018-04-17T06:45:15.020Z,14.20
2018-04-17T06:47:43.736Z,14.30
2018-04-17T06:50:12.074Z,14.50
2018-04-17T06:52:40.483Z,14.70
2018-04-17T06:55:08.868Z,14.80
2018-04-17T06:57:37.289Z,15.00
2018-04-17T07:00:05.668Z,15.10
2018-04-17T07:02:34.100Z,15.20
2018-04-17T07:05:02.473Z,15.40
2018-04-17T07:07:30.844Z,15.60
2018-04-17T07:09:59.255Z,15.80
2018-04-17T07:12:28.399Z,16.20
2018-04-17T07:14:57.132Z,16.20
2018-04-17T07:17:26.272Z,16.60
2018-04-17T07:19:55.503Z,16.60
2018-04-17T07:22:23.900Z,16.80
2018-04-17T07:24:52.276Z,16.80
2018-04-17T07:27:20.874Z,16.90
2018-04-17T07:29:50.997Z,17.20
2018-04-17T07:32:20.173Z,17.40
2018-04-17T07:34:48.585Z,17.40
2018-04-17T07:37:16.993Z,17.50
2018-04-17T07:39:45.430Z,17.70
2018-04-17T07:42:14.580Z,17.70
2018-04-17T07:44:42.995Z,17.70
2018-04-17T07:47:32.251Z,18.00
2018-04-17T07:50:00.657Z,18.00
2018-04-17T07:52:29.040Z,18.30
2018-04-17T07:54:57.680Z,18.50
2018-04-17T07:57:35.933Z,18.80
2018-04-17T08:00:04.785Z,18.80
2018-04-17T08:02:33.176Z,19.00
2018-04-17T08:05:01.728Z,19.00
2018-04-17T08:07:30.101Z,19.20
2018-04-17T08:09:58.488Z,19.40
2018-04-17T08:12:26.893Z,19.50
2018-04-17T08:14:55.271Z,19.70
2018-04-17T08:17:23.689Z,20.10
2018-04-17T08:19:52.079Z,20.50
2018-04-17T08:22:20.509Z,20.50
2018-04-17T08:24:48.883Z,20.50
2018-04-17T08:27:17.265Z,20.60
2018-04-17T08:29:45.660Z,20.70
2018-04-17T08:32:14.810Z,20.70
2018-04-17T08:34:43.218Z,20.70
2018-04-17T08:37:11.596Z,20.60
2018-04-17T08:39:40.046Z,20.80
2018-04-17T08:42:08.446Z,21.10
2018-04-17T08:44:36.829Z,21.10
2018-04-17T08:47:05.236Z,21.30
2018-04-17T08:49:34.386Z,21.50
2018-04-17T08:52:02.767Z,21.50
2018-04-17T08:54:32.337Z,21.90
2018-04-17T08:57:00.744Z,22.10
2018-04-17T08:59:29.135Z,22.20
2018-04-17T09:01:57.603Z,22.30
2018-04-17T09:04:25.981Z,22.60
2018-04-17T09:06:54.359Z,22.80
2018-04-17T09:09:22.835Z,23.10
2018-04-17T09:11:51.446Z,23.20
2018-04-17T09:14:19.906Z,23.20
2018-04-17T09:16:48.345Z,23.20
2018-04-17T09:19:17.484Z,23.60
2018-04-17T09:21:45.854Z,23.60
2018-04-17T09:24:14.262Z,23.60
2018-04-17T09:26:42.637Z,23.30
2018-04-17T09:29:11.016Z,23.60
2018-04-17T09:31:39.420Z,24.00
2018-04-17T09:34:08.634Z,24.50
2018-04-17T09:36:37.004Z,24.50
2018-04-17T09:39:08.037Z,24.90
2018-04-17T09:41:37.177Z,24.90
2018-04-17T09:44:05.545Z,24.90
2018-04-17T09:46:33.956Z,24.90
2018-04-17T09:49:02.321Z,24.80
2018-04-17T09:51:30.689Z,24.80
2018-04-17T09:53:59.092Z,24.90
2018-04-17T09:56:27.465Z,25.10
2018-04-17T09:58:55.830Z,25.30
2018-04-17T10:01:24.232Z,25.60
2018-04-17T10:03:52.601Z,25.80
2018-04-17T10:06:20.968Z,26.10
2018-04-17T10:08:50.124Z,26.20
2018-04-17T10:11:18.515Z,26.40
2018-04-17T10:13:46.881Z,26.50
2018-04-17T10:16:15.276Z,26.30
2018-04-17T10:18:43.649Z,26.30
2018-04-17T10:21:12.060Z,26.40
2018-04-17T10:23:40.442Z,26.60
2018-04-17T10:26:08.809Z,26.50
2018-04-17T10:28:37.176Z,26.30
2018-04-17T10:31:05.588Z,26.50
2018-04-17T10:33:34.215Z,26.40
2018-04-17T10:36:02.793Z,26.60
2018-04-17T10:38:31.964Z,26.90
2018-04-17T10:41:00.337Z,26.90
2018-04-17T10:43:28.872Z,26.90
2018-04-17T10:45:57.270Z,26.90
2018-04-17T10:48:25.783Z,27.00
2018-04-17T10:50:54.150Z,26.90
2018-04-17T10:53:22.556Z,26.80
2018-04-17T10:55:51.809Z,26.70
2018-04-17T10:58:20.204Z,26.70
2018-04-17T11:00:48.605Z,26.50
2018-04-17T11:03:16.986Z,26.30
2018-04-17T11:05:46.133Z,25.50
2018-04-17T11:08:14.533Z,25.50
2018-04-17T11:10:42.932Z,25.10
2018-04-17T11:13:11.305Z,25.00
2018-04-17T11:15:39.724Z,24.90
2018-04-17T11:18:08.089Z,24.30
2018-04-17T11:20:37.225Z,24.00
2018-04-17T11:23:05.631Z,24.00
2018-04-17T11:25:34.032Z,23.80
2018-04-17T11:28:03.223Z,23.60
2018-04-17T11:30:31.628Z,23.60
2018-04-17T11:33:00.009Z,23.40
2018-04-17T11:35:28.397Z,23.00
2018-04-17T11:37:56.813Z,23.10
2018-04-17T11:40:25.877Z,23.20
2018-04-17T11:42:54.387Z,23.10
2018-04-17T11:45:22.768Z,23.10
2018-04-17T11:47:51.141Z,23.00
2018-04-17T11:50:19.516Z,22.90
2018-04-17T11:52:47.950Z,22.80
2018-04-17T11:55:17.086Z,22.40
2018-04-17T11:57:45.464Z,22.40
2018-04-17T12:00:13.888Z,22.40
2018-04-17T12:02:43.024Z,22.50
2018-04-17T12:05:11.412Z,22.50
2018-04-17T12:07:39.855Z,22.30
2018-04-17T12:10:08.989Z,22.40
2018-04-17T12:12:37.357Z,22.40
2018-04-17T12:15:05.756Z,22.70
2018-04-17T12:17:34.125Z,22.90
2018-04-17T12:20:02.497Z,22.90
2018-04-17T12:22:30.920Z,23.20
2018-04-17T12:24:59.295Z,23.40
2018-04-17T12:27:27.671Z,24.00
2018-04-17T12:29:56.076Z,24.40
2018-04-17T12:32:25.226Z,24.60
2018-04-17T12:34:53.710Z,24.60
2018-04-17T12:37:22.109Z,24.70
2018-04-17T12:39:50.480Z,24.80
2018-04-17T12:42:20.348Z,25.20
2018-04-17T12:44:48.940Z,25.30
2018-04-17T12:47:17.310Z,25.70
2018-04-17T12:49:45.693Z,26.20
2018-04-17T12:52:14.377Z,26.40
2018-04-17T12:54:42.745Z,26.60
2018-04-17T12:57:11.473Z,26.50
2018-04-17T12:59:39.980Z,26.50
2018-04-17T13:02:09.117Z,26.90
2018-04-17T13:04:37.652Z,26.90
2018-04-17T13:07:06.196Z,27.30
2018-04-17T13:09:34.581Z,27.70
2018-04-17T13:12:02.953Z,27.80
2018-04-17T13:14:31.360Z,28.00
2018-04-17T13:16:59.728Z,27.40
2018-04-17T13:19:28.108Z,27.70
2018-04-17T13:21:56.570Z,27.70
2018-04-17T13:24:25.001Z,27.40
2018-04-17T13:26:54.137Z,27.10
2018-04-17T13:29:22.817Z,27.10
2018-04-17T13:31:51.188Z,26.80
2018-04-17T13:34:19.569Z,26.40
2018-04-17T13:36:47.981Z,26.00
2018-04-17T13:39:16.358Z,25.60
2018-04-17T13:41:44.741Z,25.30
2018-04-17T13:44:13.569Z,25.40
2018-04-17T13:46:42.095Z,25.60
2018-04-17T13:49:10.469Z,26.10
2018-04-17T13:51:39.158Z,26.30
2018-04-17T13:54:07.612Z,26.70
2018-04-17T13:56:35.974Z,26.30
2018-04-17T13:59:05.404Z,27.00
2018-04-17T14:01:33.876Z,26.90
2018-04-17T14:04:02.276Z,27.20
2018-04-17T14:06:30.704Z,27.40
2018-04-17T14:08:59.904Z,27.30
2018-04-17T14:11:29.060Z,27.10
2018-04-17T14:13:58.928Z,27.10
2018-04-17T14:16:27.301Z,27.30
2018-04-17T14:18:56.540Z,27.20
2018-04-17T14:21:25.171Z,27.10
2018-04-17T14:23:54.307Z,26.90
2018-04-17T14:26:22.692Z,26.80
2018-04-17T14:28:51.296Z,26.70
2018-04-17T14:31:20.481Z,26.60
2018-04-17T14:33:48.888Z,26.60
2018-04-17T14:36:17.312Z,26.60
2018-04-17T14:38:45.681Z,26.50
2018-04-17T14:41:14.065Z,26.40
2018-04-17T14:43:42.507Z,26.10
2018-04-17T14:46:10.872Z,25.70
2018-04-17T14:48:39.250Z,25.40
2018-04-17T14:51:07.657Z,25.10
2018-04-17T14:53:36.808Z,24.40
2018-04-17T14:56:05.188Z,24.40
2018-04-17T14:58:33.606Z,24.10
2018-04-17T15:01:02.858Z,23.90
2018-04-17T15:03:32.417Z,23.90
2018-04-17T15:06:01.131Z,23.80
2018-04-17T15:08:29.635Z,23.80
2018-04-17T15:10:58.004Z,23.70
2018-04-17T15:13:26.414Z,23.80
2018-04-17T15:15:55.843Z,23.80
2018-04-17T15:18:25.060Z,23.80
2018-04-17T15:20:54.241Z,23.60
2018-04-17T15:23:22.779Z,23.50
2018-04-17T15:25:51.258Z,23.40
2018-04-17T15:28:20.579Z,23.20
2018-04-17T15:30:48.957Z,23.20
2018-04-17T15:33:18.101Z,23.10
2018-04-17T15:35:46.649Z,23.10
2018-04-17T15:38:15.670Z,23.00
2018-04-17T15:40:44.127Z,23.10
2018-04-17T15:43:12.876Z,23.20
2018-04-17T15:45:41.334Z,23.20
2018-04-17T15:48:09.749Z,23.00
2018-04-17T15:50:38.385Z,23.00
2018-04-17T15:53:07.285Z,22.90
2018-04-17T15:55:35.721Z,22.90
2018-04-17T15:58:05.811Z,22.70
2018-04-17T16:00:34.185Z,22.70
2018-04-17T16:03:02.599Z,22.80
2018-04-17T16:05:31.025Z,22.70
2018-04-17T16:07:59.407Z,22.60
2018-04-17T16:10:27.799Z,22.50
2018-04-17T16:12:56.275Z,22.50
2018-04-17T16:15:24.609Z,22.40
2018-04-17T16:17:53.749Z,22.20
2018-04-17T16:20:22.149Z,22.20
2018-04-17T16:22:50.633Z,22.10
2018-04-17T16:25:19.013Z,22.00
2018-04-17T16:27:47.570Z,21.90
2018-04-17T16:30:15.960Z,21.90
2018-04-17T16:32:44.344Z,21.80
2018-04-17T16:35:12.752Z,21.70
2018-04-17T16:37:41.172Z,21.40
2018-04-17T16:40:09.548Z,21.30
2018-04-17T16:42:37.980Z,21.30
2018-04-17T16:45:07.260Z,21.10
2018-04-17T16:47:35.636Z,21.10
2018-04-17T16:50:04.069Z,21.00
2018-04-17T16:52:32.449Z,21.00
2018-04-17T16:55:00.829Z,20.90
2018-04-17T16:57:29.301Z,20.90
2018-04-17T16:59:58.425Z,20.70
2018-04-17T17:02:26.820Z,20.70
2018-04-17T17:04:55.248Z,20.60
2018-04-17T17:07:23.632Z,20.50
2018-04-17T17:09:52.014Z,20.40
2018-04-17T17:12:20.443Z,20.20
2018-04-17T17:14:48.838Z,20.10
2018-04-17T17:17:17.234Z,20.10
2018-04-17T17:19:46.412Z,19.90
2018-04-17T17:22:15.560Z,19.90
2018-04-17T17:24:43.962Z,19.90
2018-04-17T17:27:12.421Z,19.80
2018-04-17T17:29:40.809Z,19.80
2018-04-17T17:32:09.192Z,19.70
2018-04-17T17:34:37.653Z,19.60
2018-04-17T17:37:06.049Z,19.60
2018-04-17T17:39:34.429Z,19.50
2018-04-17T17:42:02.925Z,19.40
2018-04-17T17:44:31.319Z,19.40
2018-04-17T17:46:59.712Z,19.30
2018-04-17T17:49:28.901Z,19.20
2018-04-17T17:51:57.351Z,19.10
2018-04-17T17:54:25.734Z,19.10
2018-04-17T17:56:54.204Z,19.00
2018-04-17T17:59:22.576Z,19.00
2018-04-17T18:01:52.249Z,19.00
2018-04-17T18:04:21.503Z,18.80
2018-04-17T18:06:49.888Z,18.80
2018-04-17T18:09:18.705Z,18.70
2018-04-17T18:11:48.062Z,18.50
2018-04-17T18:14:17.990Z,18.50
2018-04-17T18:16:46.385Z,18.40
2018-04-17T18:19:15.872Z,18.30
2018-04-17T18:21:44.584Z,18.30
2018-04-17T18:24:14.557Z,18.10
2018-04-17T18:26:43.001Z,18.10
2018-04-17T18:29:13.164Z,18.00
2018-04-17T18:31:43.208Z,17.90
2018-04-17T18:34:11.969Z,17.90
2018-04-17T18:36:40.549Z,17.80
2018-04-17T18:39:09.075Z,17.80
2018-04-17T18:41:37.509Z,17.60
2018-04-17T18:44:06.221Z,17.60
2018-04-17T18:46:34.884Z,17.50
2018-04-17T18:49:06.953Z,17.40
2018-04-17T18:51:37.770Z,17.30
2018-04-17T18:54:07.747Z,17.30
2018-04-17T18:56:36.288Z,17.20
2018-04-17T18:59:04.911Z,17.20
2018-04-17T19:01:34.384Z,17.00
2018-04-17T19:04:03.783Z,17.00
2018-04-17T19:06:33.743Z,17.00
2018-04-17T19:09:02.558Z,17.00
2018-04-17T19:11:31.314Z,16.90
2018-04-17T19:13:59.729Z,16.90
2018-04-17T19:16:28.221Z,16.90
2018-04-17T19:18:57.265Z,16.80
2018-04-17T19:21:25.735Z,16.70
2018-04-17T19:23:54.904Z,16.50
2018-04-17T19:26:23.461Z,16.50
2018-04-17T19:28:52.096Z,16.40
2018-04-17T19:31:21.390Z,16.30
2018-04-17T19:33:49.779Z,16.20
2018-04-17T19:36:19.972Z,16.20
2018-04-17T19:38:48.428Z,16.10
2018-04-17T19:41:17.464Z,16.10
2018-04-17T19:43:46.025Z,16.00
2018-04-17T19:46:15.210Z,16.00
2018-04-17T19:48:44.469Z,15.90
2018-04-17T19:51:13.401Z,15.90
2018-04-17T19:53:42.702Z,15.80
2018-04-17T19:56:12.346Z,15.80
2018-04-17T19:58:41.825Z,15.70
2018-04-17T20:01:10.720Z,15.70
2018-04-17T20:03:40.515Z,15.50
2018-04-17T20:06:11.179Z,15.40
2018-04-17T20:08:41.465Z,15.40
2018-04-17T20:11:10.906Z,15.20
2018-04-17T20:13:40.439Z,15.10
2018-04-17T20:16:09.605Z,15.00
2018-04-17T20:18:38.113Z,15.00
2018-04-17T20:21:06.661Z,14.90
2018-04-17T20:23:35.344Z,14.90
2018-04-17T20:26:04.566Z,14.80
2018-04-17T20:28:33.626Z,14.80
2018-04-17T20:31:02.438Z,14.70
2018-04-17T20:33:31.105Z,14.70
2018-04-17T20:35:59.605Z,14.70
2018-04-17T20:38:28.789Z,14.60
2018-04-17T20:40:57.196Z,14.60
2018-04-17T20:43:26.369Z,14.50
2018-04-17T20:45:54.934Z,14.50
2018-04-17T20:48:23.670Z,14.40
2018-04-17T20:50:52.830Z,14.30
2018-04-17T20:53:21.262Z,14.30
2018-04-17T20:55:50.141Z,14.20
2018-04-17T20:58:18.735Z,14.10
2018-04-17T21:00:47.134Z,14.10
2018-04-17T21:03:15.524Z,14.00
2018-04-17T21:05:44.054Z,13.90
2018-04-17T21:08:13.276Z,13.80
2018-04-17T21:10:41.717Z,13.80
2018-04-17T21:13:10.108Z,13.80
2018-04-17T21:15:39.298Z,13.70
2018-04-17T21:18:07.840Z,13.70
2018-04-17T21:20:36.230Z,13.60
2018-04-17T21:23:04.621Z,13.60
2018-04-17T21:25:33.025Z,13.50
2018-04-17T21:28:02.171Z,13.40
2018-04-17T21:30:30.876Z,13.40
2018-04-17T21:32:59.257Z,13.40
2018-04-17T21:35:27.643Z,13.40
2018-04-17T21:37:56.049Z,13.30
2018-04-17T21:40:25.192Z,13.30
2018-04-17T21:42:53.976Z,13.20
2018-04-17T21:45:22.972Z,13.30
2018-04-17T21:47:51.397Z,13.30
2018-04-17T21:50:21.220Z,13.30
2018-04-17T21:52:49.602Z,13.30
2018-04-17T21:55:18.221Z,13.20
2018-04-17T21:58:04.683Z,13.20
2018-04-17T22:00:50.016Z,13.00
2018-04-17T22:03:19.303Z,13.00
2018-04-17T22:05:48.637Z,13.00
2018-04-17T22:08:17.025Z,13.00
2018-04-17T22:13:41.715Z,12.90
2018-04-17T22:16:10.308Z,12.90
2018-04-17T22:18:38.908Z,12.70
2018-04-17T22:21:08.060Z,12.20
2018-04-17T22:23:42.117Z,12.20
2018-04-17T22:26:16.323Z,12.20
2018-04-17T22:28:54.655Z,12.30
2018-04-17T22:31:37.812Z,12.30
2018-04-17T22:34:22.433Z,12.30
2018-04-17T22:36:55.120Z,12.30
2018-04-17T22:39:27.829Z,12.20
2018-04-17T22:41:59.541Z,12.20
2018-04-17T22:44:35.677Z,12.10
2018-04-17T22:47:11.115Z,12.10
2018-04-17T22:49:47.611Z,12.10
2018-04-17T22:52:23.696Z,12.10
2018-04-17T22:54:59.902Z,12.10
2018-04-17T22:57:28.979Z,12.10
2018-04-17T23:00:06.165Z,12.10
2018-04-17T23:02:36.774Z,12.10
2018-04-17T23:05:05.368Z,12.00
2018-04-17T23:07:39.253Z,11.70
2018-04-17T23:10:11.373Z,11.60
2018-04-17T23:12:41.307Z,11.40
2018-04-17T23:15:13.208Z,11.50
2018-04-17T23:17:42.580Z,11.60
2018-04-17T23:20:11.741Z,11.50
2018-04-17T23:22:40.141Z,11.50
2018-04-17T23:25:08.513Z,11.60
2018-04-17T23:27:36.912Z,11.60
2018-04-17T23:30:06.057Z,11.60
2018-04-17T23:32:34.730Z,11.50
2018-04-17T23:35:03.110Z,11.60
2018-04-17T23:37:31.478Z,11.50
2018-04-17T23:39:59.876Z,11.30
2018-04-17T23:42:28.254Z,11.30
2018-04-17T23:44:56.829Z,11.20
2018-04-17T23:47:25.209Z,11.30
2018-04-17T23:49:53.590Z,11.30
2018-04-17T23:52:22.013Z,11.30
2018-04-17T23:54:50.390Z,11.20
2018-04-17T23:57:18.936Z,11.10
2018-04-17T23:59:47.680Z,11.10
